sensor_id;sensor_type;location;lat;lon;timestamp;pressure;altitude;pressure_sealevel;temperature;humidity
76815;BME280;65768;49.906;19.384;2023-03-03T00:00:27;98546.34;;;-3.13;88.57
76815;BME280;65768;49.906;19.384;2023-03-03T00:03:21;98541.33;;;-3.20;88.55
76815;BME280;65768;49.906;19.384;2023-03-03T00:05:50;98540.49;;;-3.22;88.73
76815;BME280;65768;49.906;19.384;2023-03-03T00:08:19;98543.63;;;-3.30;87.95
76815;BME280;65768;49.906;19.384;2023-03-03T00:10:47;98541.51;;;-3.34;87.94
76815;BME280;65768;49.906;19.384;2023-03-03T00:13:23;98540.52;;;-3.34;88.95
76815;BME280;65768;49.906;19.384;2023-03-03T00:15:52;98537.36;;;-3.32;88.64
76815;BME280;65768;49.906;19.384;2023-03-03T00:18:27;98538.35;;;-3.33;88.24
76815;BME280;65768;49.906;19.384;2023-03-03T00:20:59;98534.27;;;-3.30;88.54
76815;BME280;65768;49.906;19.384;2023-03-03T00:23:36;98534.13;;;-3.23;89.03
76815;BME280;65768;49.906;19.384;2023-03-03T00:26:20;98537.48;;;-3.18;90.16
76815;BME280;65768;49.906;19.384;2023-03-03T00:28:51;98538.64;;;-3.19;93.46
76815;BME280;65768;49.906;19.384;2023-03-03T00:31:32;98536.61;;;-3.33;93.73
76815;BME280;65768;49.906;19.384;2023-03-03T00:34:25;98537.02;;;-3.44;93.53
76815;BME280;65768;49.906;19.384;2023-03-03T00:36:56;98541.64;;;-3.49;93.65
76815;BME280;65768;49.906;19.384;2023-03-03T00:39:30;98542.02;;;-3.54;93.51
76815;BME280;65768;49.906;19.384;2023-03-03T00:42:00;98540.05;;;-3.61;93.14
76815;BME280;65768;49.906;19.384;2023-03-03T00:47:27;98535.79;;;-3.75;91.49
76815;BME280;65768;49.906;19.384;2023-03-03T00:50:34;98532.55;;;-3.86;90.72
76815;BME280;65768;49.906;19.384;2023-03-03T00:53:10;98535.45;;;-3.95;90.19
76815;BME280;65768;49.906;19.384;2023-03-03T00:55:39;98532.63;;;-3.99;89.65
76815;BME280;65768;49.906;19.384;2023-03-03T00:58:07;98528.69;;;-4.02;89.49
76815;BME280;65768;49.906;19.384;2023-03-03T01:00:37;98527.52;;;-4.05;90.00
76815;BME280;65768;49.906;19.384;2023-03-03T01:03:08;98523.70;;;-4.03;90.19
76815;BME280;65768;49.906;19.384;2023-03-03T01:05:39;98519.40;;;-4.01;90.12
76815;BME280;65768;49.906;19.384;2023-03-03T01:08:07;98516.99;;;-4.01;90.00
76815;BME280;65768;49.906;19.384;2023-03-03T01:10:39;98507.80;;;-4.04;89.81
76815;BME280;65768;49.906;19.384;2023-03-03T01:13:09;98509.67;;;-4.01;89.39
76815;BME280;65768;49.906;19.384;2023-03-03T01:15:38;98509.27;;;-3.94;88.88
76815;BME280;65768;49.906;19.384;2023-03-03T01:18:08;98508.08;;;-3.88;89.51
76815;BME280;65768;49.906;19.384;2023-03-03T01:20:37;98502.19;;;-3.70;86.84
76815;BME280;65768;49.906;19.384;2023-03-03T01:23:05;98501.11;;;-3.57;87.98
76815;BME280;65768;49.906;19.384;2023-03-03T01:25:33;98498.57;;;-3.57;88.56
76815;BME280;65768;49.906;19.384;2023-03-03T01:28:02;98499.14;;;-3.59;87.96
76815;BME280;65768;49.906;19.384;2023-03-03T01:30:31;98500.38;;;-3.61;88.13
76815;BME280;65768;49.906;19.384;2023-03-03T01:32:58;98498.13;;;-3.56;87.25
76815;BME280;65768;49.906;19.384;2023-03-03T01:35:26;98496.08;;;-3.54;87.60
76815;BME280;65768;49.906;19.384;2023-03-03T01:37:57;98493.61;;;-3.63;90.69
76815;BME280;65768;49.906;19.384;2023-03-03T01:40:28;98496.73;;;-3.70;90.55
76815;BME280;65768;49.906;19.384;2023-03-03T01:43:00;98502.29;;;-3.72;90.96
76815;BME280;65768;49.906;19.384;2023-03-03T01:45:30;98496.83;;;-3.66;91.34
76815;BME280;65768;49.906;19.384;2023-03-03T01:48:05;98497.46;;;-3.70;91.00
76815;BME280;65768;49.906;19.384;2023-03-03T01:50:55;98495.05;;;-3.81;90.75
76815;BME280;65768;49.906;19.384;2023-03-03T01:53:32;98500.66;;;-3.90;90.27
76815;BME280;65768;49.906;19.384;2023-03-03T01:56:03;98499.42;;;-3.99;90.70
76815;BME280;65768;49.906;19.384;2023-03-03T01:58:35;98501.35;;;-4.04;90.39
76815;BME280;65768;49.906;19.384;2023-03-03T02:01:11;98501.41;;;-4.08;90.58
76815;BME280;65768;49.906;19.384;2023-03-03T02:03:42;98502.17;;;-4.10;90.58
76815;BME280;65768;49.906;19.384;2023-03-03T02:06:13;98504.14;;;-4.05;91.00
76815;BME280;65768;49.906;19.384;2023-03-03T02:09:21;98506.90;;;-3.99;91.74
76815;BME280;65768;49.906;19.384;2023-03-03T02:11:52;98508.17;;;-3.90;92.83
76815;BME280;65768;49.906;19.384;2023-03-03T02:14:23;98509.62;;;-3.91;92.23
76815;BME280;65768;49.906;19.384;2023-03-03T02:16:51;98511.40;;;-3.95;91.99
76815;BME280;65768;49.906;19.384;2023-03-03T02:22:34;98507.92;;;-3.99;89.34
76815;BME280;65768;49.906;19.384;2023-03-03T02:25:10;98507.49;;;-4.01;90.84
76815;BME280;65768;49.906;19.384;2023-03-03T02:27:42;98509.61;;;-3.97;90.26
76815;BME280;65768;49.906;19.384;2023-03-03T02:30:14;98507.56;;;-3.93;90.69
76815;BME280;65768;49.906;19.384;2023-03-03T02:32:43;98510.79;;;-3.97;91.57
76815;BME280;65768;49.906;19.384;2023-03-03T02:35:29;98503.73;;;-4.06;91.42
76815;BME280;65768;49.906;19.384;2023-03-03T02:40:43;98495.78;;;-3.98;90.71
76815;BME280;65768;49.906;19.384;2023-03-03T02:43:16;98501.17;;;-3.82;91.11
76815;BME280;65768;49.906;19.384;2023-03-03T02:45:46;98501.34;;;-3.81;91.77
76815;BME280;65768;49.906;19.384;2023-03-03T02:48:14;98497.52;;;-3.86;91.99
76815;BME280;65768;49.906;19.384;2023-03-03T02:50:42;98492.40;;;-3.80;91.99
76815;BME280;65768;49.906;19.384;2023-03-03T02:53:10;98486.48;;;-3.68;89.48
76815;BME280;65768;49.906;19.384;2023-03-03T02:55:38;98488.23;;;-3.62;89.17
76815;BME280;65768;49.906;19.384;2023-03-03T02:58:06;98486.23;;;-3.56;89.13
76815;BME280;65768;49.906;19.384;2023-03-03T03:00:44;98486.59;;;-3.52;90.43
76815;BME280;65768;49.906;19.384;2023-03-03T03:03:14;98489.34;;;-3.60;90.44
76815;BME280;65768;49.906;19.384;2023-03-03T03:05:42;98493.60;;;-3.60;89.56
76815;BME280;65768;49.906;19.384;2023-03-03T03:08:10;98488.86;;;-3.63;89.44
76815;BME280;65768;49.906;19.384;2023-03-03T03:10:38;98491.52;;;-3.56;89.29
76815;BME280;65768;49.906;19.384;2023-03-03T03:13:06;98491.04;;;-3.63;90.48
76815;BME280;65768;49.906;19.384;2023-03-03T03:15:35;98483.38;;;-3.69;90.48
76815;BME280;65768;49.906;19.384;2023-03-03T03:18:03;98482.95;;;-3.70;90.99
76815;BME280;65768;49.906;19.384;2023-03-03T03:20:31;98484.48;;;-3.73;90.55
76815;BME280;65768;49.906;19.384;2023-03-03T03:23:02;98493.38;;;-3.75;90.86
76815;BME280;65768;49.906;19.384;2023-03-03T03:25:30;98503.13;;;-3.80;90.71
76815;BME280;65768;49.906;19.384;2023-03-03T03:27:58;98503.66;;;-3.82;90.79
76815;BME280;65768;49.906;19.384;2023-03-03T03:30:26;98505.98;;;-3.86;92.66
76815;BME280;65768;49.906;19.384;2023-03-03T03:32:54;98504.44;;;-4.01;92.64
76815;BME280;65768;49.906;19.384;2023-03-03T03:35:22;98502.83;;;-4.16;91.74
76815;BME280;65768;49.906;19.384;2023-03-03T03:37:50;98502.77;;;-4.25;91.22
76815;BME280;65768;49.906;19.384;2023-03-03T03:40:18;98498.01;;;-4.35;90.79
76815;BME280;65768;49.906;19.384;2023-03-03T03:42:46;98499.21;;;-4.44;90.55
76815;BME280;65768;49.906;19.384;2023-03-03T03:45:14;98495.40;;;-4.50;91.02
76815;BME280;65768;49.906;19.384;2023-03-03T03:47:42;98493.48;;;-4.54;91.27
76815;BME280;65768;49.906;19.384;2023-03-03T03:50:11;98493.17;;;-4.55;92.77
76815;BME280;65768;49.906;19.384;2023-03-03T03:52:39;98495.27;;;-4.55;93.45
76815;BME280;65768;49.906;19.384;2023-03-03T03:55:07;98495.77;;;-4.52;93.23
76815;BME280;65768;49.906;19.384;2023-03-03T03:57:35;98494.55;;;-4.45;92.99
76815;BME280;65768;49.906;19.384;2023-03-03T04:00:04;98494.84;;;-4.37;92.67
76815;BME280;65768;49.906;19.384;2023-03-03T04:02:34;98491.98;;;-4.34;92.45
76815;BME280;65768;49.906;19.384;2023-03-03T04:05:02;98493.15;;;-4.37;92.43
76815;BME280;65768;49.906;19.384;2023-03-03T04:07:30;98491.88;;;-4.41;92.43
76815;BME280;65768;49.906;19.384;2023-03-03T04:09:58;98489.42;;;-4.42;92.70
76815;BME280;65768;49.906;19.384;2023-03-03T04:12:26;98487.92;;;-4.39;92.70
76815;BME280;65768;49.906;19.384;2023-03-03T04:14:54;98490.10;;;-4.31;92.58
76815;BME280;65768;49.906;19.384;2023-03-03T04:17:22;98491.50;;;-4.33;91.89
76815;BME280;65768;49.906;19.384;2023-03-03T04:19:52;98495.13;;;-4.32;92.65
76815;BME280;65768;49.906;19.384;2023-03-03T04:22:20;98489.04;;;-4.32;92.27
76815;BME280;65768;49.906;19.384;2023-03-03T04:24:48;98487.66;;;-4.32;91.66
76815;BME280;65768;49.906;19.384;2023-03-03T04:27:16;98479.20;;;-4.29;91.54
76815;BME280;65768;49.906;19.384;2023-03-03T04:29:44;98473.77;;;-4.29;91.38
76815;BME280;65768;49.906;19.384;2023-03-03T04:32:12;98479.58;;;-4.31;91.32
76815;BME280;65768;49.906;19.384;2023-03-03T04:34:40;98471.73;;;-4.28;91.57
76815;BME280;65768;49.906;19.384;2023-03-03T04:37:08;98468.33;;;-4.26;91.67
76815;BME280;65768;49.906;19.384;2023-03-03T04:39:36;98469.65;;;-4.24;91.60
76815;BME280;65768;49.906;19.384;2023-03-03T04:42:04;98475.63;;;-4.23;91.61
76815;BME280;65768;49.906;19.384;2023-03-03T04:44:32;98482.82;;;-4.20;92.79
76815;BME280;65768;49.906;19.384;2023-03-03T04:47:00;98490.67;;;-4.16;93.60
76815;BME280;65768;49.906;19.384;2023-03-03T04:49:28;98496.23;;;-4.21;92.96
76815;BME280;65768;49.906;19.384;2023-03-03T04:51:57;98494.52;;;-4.26;92.93
76815;BME280;65768;49.906;19.384;2023-03-03T04:54:25;98499.75;;;-4.32;93.01
76815;BME280;65768;49.906;19.384;2023-03-03T04:56:53;98508.25;;;-4.38;93.32
76815;BME280;65768;49.906;19.384;2023-03-03T04:59:21;98511.88;;;-4.45;92.96
76815;BME280;65768;49.906;19.384;2023-03-03T05:01:49;98507.96;;;-4.53;92.03
76815;BME280;65768;49.906;19.384;2023-03-03T05:04:17;98510.48;;;-4.59;92.02
76815;BME280;65768;49.906;19.384;2023-03-03T05:06:45;98508.52;;;-4.60;91.48
76815;BME280;65768;49.906;19.384;2023-03-03T05:09:13;98510.98;;;-4.64;91.47
76815;BME280;65768;49.906;19.384;2023-03-03T05:11:41;98513.31;;;-4.68;91.10
76815;BME280;65768;49.906;19.384;2023-03-03T05:14:09;98514.16;;;-4.73;91.60
76815;BME280;65768;49.906;19.384;2023-03-03T05:16:37;98511.27;;;-4.73;91.58
76815;BME280;65768;49.906;19.384;2023-03-03T05:19:05;98510.52;;;-4.69;92.10
76815;BME280;65768;49.906;19.384;2023-03-03T05:21:33;98511.29;;;-4.67;92.18
76815;BME280;65768;49.906;19.384;2023-03-03T05:24:01;98510.10;;;-4.65;92.04
76815;BME280;65768;49.906;19.384;2023-03-03T05:26:29;98510.85;;;-4.58;92.52
76815;BME280;65768;49.906;19.384;2023-03-03T05:28:57;98510.35;;;-4.50;92.26
76815;BME280;65768;49.906;19.384;2023-03-03T05:31:25;98517.84;;;-4.39;93.89
76815;BME280;65768;49.906;19.384;2023-03-03T05:33:53;98514.66;;;-4.36;93.04
76815;BME280;65768;49.906;19.384;2023-03-03T05:36:21;98509.14;;;-4.32;93.05
76815;BME280;65768;49.906;19.384;2023-03-03T05:38:50;98519.86;;;-4.26;93.30
76815;BME280;65768;49.906;19.384;2023-03-03T05:41:18;98522.33;;;-4.16;94.30
76815;BME280;65768;49.906;19.384;2023-03-03T05:43:46;98519.26;;;-4.28;93.96
76815;BME280;65768;49.906;19.384;2023-03-03T05:46:14;98521.68;;;-4.43;92.50
76815;BME280;65768;49.906;19.384;2023-03-03T05:48:43;98527.77;;;-4.49;91.90
76815;BME280;65768;49.906;19.384;2023-03-03T05:51:12;98530.48;;;-4.41;92.11
76815;BME280;65768;49.906;19.384;2023-03-03T05:53:40;98523.20;;;-4.41;91.37
76815;BME280;65768;49.906;19.384;2023-03-03T05:56:08;98527.64;;;-4.43;91.37
76815;BME280;65768;49.906;19.384;2023-03-03T05:58:36;98528.36;;;-4.39;91.55
76815;BME280;65768;49.906;19.384;2023-03-03T06:01:04;98529.86;;;-4.37;91.53
76815;BME280;65768;49.906;19.384;2023-03-03T06:03:32;98531.40;;;-4.32;90.35
76815;BME280;65768;49.906;19.384;2023-03-03T06:06:00;98531.88;;;-4.30;90.34
76815;BME280;65768;49.906;19.384;2023-03-03T06:08:28;98531.31;;;-4.20;90.55
76815;BME280;65768;49.906;19.384;2023-03-03T06:10:57;98537.52;;;-4.16;91.16
76815;BME280;65768;49.906;19.384;2023-03-03T06:13:25;98543.25;;;-4.09;91.88
76815;BME280;65768;49.906;19.384;2023-03-03T06:15:54;98545.06;;;-3.96;92.33
76815;BME280;65768;49.906;19.384;2023-03-03T06:18:22;98548.20;;;-3.95;91.43
76815;BME280;65768;49.906;19.384;2023-03-03T06:20:53;98553.61;;;-3.93;91.70
76815;BME280;65768;49.906;19.384;2023-03-03T06:23:22;98559.02;;;-3.83;91.62
76815;BME280;65768;49.906;19.384;2023-03-03T06:25:50;98565.95;;;-3.72;91.73
76815;BME280;65768;49.906;19.384;2023-03-03T06:28:19;98576.02;;;-3.63;91.55
76815;BME280;65768;49.906;19.384;2023-03-03T06:30:47;98582.89;;;-3.57;91.70
76815;BME280;65768;49.906;19.384;2023-03-03T06:33:15;98586.77;;;-3.55;91.53
76815;BME280;65768;49.906;19.384;2023-03-03T06:35:44;98590.36;;;-3.52;90.66
76815;BME280;65768;49.906;19.384;2023-03-03T06:38:16;98593.84;;;-3.51;88.98
76815;BME280;65768;49.906;19.384;2023-03-03T06:40:45;98591.86;;;-3.47;88.30
76815;BME280;65768;49.906;19.384;2023-03-03T06:43:14;98603.11;;;-3.27;89.06
76815;BME280;65768;49.906;19.384;2023-03-03T06:45:44;98612.86;;;-3.07;89.45
76815;BME280;65768;49.906;19.384;2023-03-03T06:48:12;98617.67;;;-2.92;89.30
76815;BME280;65768;49.906;19.384;2023-03-03T06:50:40;98613.46;;;-2.79;88.35
76815;BME280;65768;49.906;19.384;2023-03-03T06:53:12;98615.89;;;-2.67;87.20
76815;BME280;65768;49.906;19.384;2023-03-03T06:55:41;98614.52;;;-2.49;87.04
76815;BME280;65768;49.906;19.384;2023-03-03T06:58:17;98618.35;;;-2.33;87.41
76815;BME280;65768;49.906;19.384;2023-03-03T07:00:56;98617.84;;;-2.18;86.78
76815;BME280;65768;49.906;19.384;2023-03-03T07:03:34;98612.19;;;-1.97;87.31
76815;BME280;65768;49.906;19.384;2023-03-03T07:06:13;98609.77;;;-1.79;87.16
76815;BME280;65768;49.906;19.384;2023-03-03T07:08:43;98604.52;;;-1.62;87.47
76815;BME280;65768;49.906;19.384;2023-03-03T07:11:15;98600.55;;;-1.57;87.37
76815;BME280;65768;49.906;19.384;2023-03-03T07:13:54;98591.79;;;-1.57;87.62
76815;BME280;65768;49.906;19.384;2023-03-03T07:16:26;98592.16;;;-1.44;87.29
76815;BME280;65768;49.906;19.384;2023-03-03T07:19:00;98591.55;;;-1.30;86.61
76815;BME280;65768;49.906;19.384;2023-03-03T07:21:35;98583.44;;;-1.19;86.46
76815;BME280;65768;49.906;19.384;2023-03-03T07:24:25;98579.46;;;-1.12;86.26
76815;BME280;65768;49.906;19.384;2023-03-03T07:27:10;98586.05;;;-0.94;86.86
76815;BME280;65768;49.906;19.384;2023-03-03T07:29:39;98580.70;;;-0.95;86.07
76815;BME280;65768;49.906;19.384;2023-03-03T07:32:38;98577.89;;;-1.06;85.90
76815;BME280;65768;49.906;19.384;2023-03-03T07:37:56;98580.63;;;-1.07;86.68
76815;BME280;65768;49.906;19.384;2023-03-03T07:40:37;98572.92;;;-1.13;86.68
76815;BME280;65768;49.906;19.384;2023-03-03T07:43:24;98569.08;;;-1.11;86.34
76815;BME280;65768;49.906;19.384;2023-03-03T07:46:25;98555.92;;;-1.11;86.46
76815;BME280;65768;49.906;19.384;2023-03-03T07:48:57;98544.89;;;-1.07;86.85
76815;BME280;65768;49.906;19.384;2023-03-03T07:51:27;98524.56;;;-1.03;86.33
76815;BME280;65768;49.906;19.384;2023-03-03T07:56:35;98546.96;;;-0.79;86.33
76815;BME280;65768;49.906;19.384;2023-03-03T07:59:19;98546.88;;;-0.70;86.09
76815;BME280;65768;49.906;19.384;2023-03-03T08:01:56;98548.23;;;-0.67;85.70
76815;BME280;65768;49.906;19.384;2023-03-03T08:04:41;98549.86;;;-0.62;85.63
76815;BME280;65768;49.906;19.384;2023-03-03T08:07:13;98552.23;;;-0.55;85.49
76815;BME280;65768;49.906;19.384;2023-03-03T08:09:47;98550.44;;;-0.47;85.98
76815;BME280;65768;49.906;19.384;2023-03-03T08:12:39;98552.24;;;-0.48;85.30
76815;BME280;65768;49.906;19.384;2023-03-03T08:17:43;98550.15;;;-0.35;84.95
76815;BME280;65768;49.906;19.384;2023-03-03T08:20:45;98549.14;;;-0.17;84.95
76815;BME280;65768;49.906;19.384;2023-03-03T08:23:15;98535.20;;;0.04;85.13
76815;BME280;65768;49.906;19.384;2023-03-03T08:25:44;98536.10;;;0.19;84.88
76815;BME280;65768;49.906;19.384;2023-03-03T08:28:14;98529.61;;;0.20;84.13
76815;BME280;65768;49.906;19.384;2023-03-03T08:30:43;98537.02;;;0.51;83.89
76815;BME280;65768;49.906;19.384;2023-03-03T08:33:12;98543.31;;;0.65;83.48
76815;BME280;65768;49.906;19.384;2023-03-03T08:35:43;98550.05;;;0.85;82.79
76815;BME280;65768;49.906;19.384;2023-03-03T08:38:14;98550.42;;;0.98;81.79
76815;BME280;65768;49.906;19.384;2023-03-03T08:40:43;98555.34;;;1.29;81.49
76815;BME280;65768;49.906;19.384;2023-03-03T08:43:12;98567.80;;;1.48;81.18
76815;BME280;65768;49.906;19.384;2023-03-03T08:45:44;98571.85;;;1.50;80.48
76815;BME280;65768;49.906;19.384;2023-03-03T08:48:14;98560.52;;;1.54;80.86
76815;BME280;65768;49.906;19.384;2023-03-03T08:51:25;98548.84;;;1.50;80.78
76815;BME280;65768;49.906;19.384;2023-03-03T08:53:53;98539.67;;;1.28;81.54
76815;BME280;65768;49.906;19.384;2023-03-03T08:56:22;98554.72;;;1.51;81.08
76815;BME280;65768;49.906;19.384;2023-03-03T08:58:49;98561.85;;;1.53;81.08
76815;BME280;65768;49.906;19.384;2023-03-03T09:01:17;98576.55;;;1.44;81.58
76815;BME280;65768;49.906;19.384;2023-03-03T09:03:45;98584.91;;;1.02;82.96
76815;BME280;65768;49.906;19.384;2023-03-03T09:06:13;98587.98;;;0.75;84.78
76815;BME280;65768;49.906;19.384;2023-03-03T09:08:42;98594.77;;;0.39;85.91
76815;BME280;65768;49.906;19.384;2023-03-03T09:11:14;98588.63;;;0.29;86.53
76815;BME280;65768;49.906;19.384;2023-03-03T09:13:46;98586.91;;;0.21;86.65
76815;BME280;65768;49.906;19.384;2023-03-03T09:16:19;98594.40;;;0.12;87.99
76815;BME280;65768;49.906;19.384;2023-03-03T09:18:48;98601.52;;;0.07;87.97
76815;BME280;65768;49.906;19.384;2023-03-03T09:21:24;98603.23;;;0.00;87.48
76815;BME280;65768;49.906;19.384;2023-03-03T09:23:58;98612.62;;;-0.04;88.61
76815;BME280;65768;49.906;19.384;2023-03-03T09:31:49;98612.09;;;-0.22;89.78
76815;BME280;65768;49.906;19.384;2023-03-03T09:34:27;98609.91;;;-0.17;89.27
76815;BME280;65768;49.906;19.384;2023-03-03T09:37:26;98601.20;;;-0.24;88.98
76815;BME280;65768;49.906;19.384;2023-03-03T09:39:56;98602.98;;;-0.44;89.28
76815;BME280;65768;49.906;19.384;2023-03-03T09:47:56;98608.07;;;-0.51;90.66
76815;BME280;65768;49.906;19.384;2023-03-03T09:53:21;98608.13;;;-0.54;90.19
76815;BME280;65768;49.906;19.384;2023-03-03T10:13:35;98610.49;;;-0.75;90.19
76815;BME280;65768;49.906;19.384;2023-03-03T10:16:16;98605.61;;;-0.93;90.54
76815;BME280;65768;49.906;19.384;2023-03-03T10:18:57;98608.75;;;-0.99;90.45
76815;BME280;65768;49.906;19.384;2023-03-03T10:21:34;98610.39;;;-0.97;90.81
76815;BME280;65768;49.906;19.384;2023-03-03T10:24:27;98606.63;;;-1.00;90.69
76815;BME280;65768;49.906;19.384;2023-03-03T10:29:48;98615.97;;;-0.95;91.49
76815;BME280;65768;49.906;19.384;2023-03-03T10:32:32;98617.52;;;-0.81;91.16
76815;BME280;65768;49.906;19.384;2023-03-03T10:38:19;98626.05;;;-0.82;90.03
76815;BME280;65768;49.906;19.384;2023-03-03T10:41:30;98627.08;;;-0.85;89.48
76815;BME280;65768;49.906;19.384;2023-03-03T10:49:56;98638.29;;;-0.80;89.40
76815;BME280;65768;49.906;19.384;2023-03-03T10:52:47;98640.27;;;-0.85;89.82
76815;BME280;65768;49.906;19.384;2023-03-03T10:55:29;98639.27;;;-0.84;89.34
76815;BME280;65768;49.906;19.384;2023-03-03T11:00:51;98635.10;;;-0.75;88.88
76815;BME280;65768;49.906;19.384;2023-03-03T11:03:41;98629.59;;;-0.73;88.57
76815;BME280;65768;49.906;19.384;2023-03-03T11:19:34;98649.02;;;-0.78;88.21
76815;BME280;65768;49.906;19.384;2023-03-03T11:36:44;98638.61;;;-1.00;88.66
76815;BME280;65768;49.906;19.384;2023-03-03T11:39:22;98644.77;;;-0.94;89.19
76815;BME280;65768;49.906;19.384;2023-03-03T11:44:40;98633.52;;;-0.83;89.26
76815;BME280;65768;49.906;19.384;2023-03-03T11:48:11;98638.53;;;-0.75;88.68
76815;BME280;65768;49.906;19.384;2023-03-03T11:53:30;98639.31;;;-0.66;88.76
76815;BME280;65768;49.906;19.384;2023-03-03T12:01:58;98637.39;;;-0.74;88.21
76815;BME280;65768;49.906;19.384;2023-03-03T12:04:58;98636.66;;;-0.69;88.84
76815;BME280;65768;49.906;19.384;2023-03-03T12:12:43;98641.89;;;-0.93;88.95
76815;BME280;65768;49.906;19.384;2023-03-03T12:17:55;98641.56;;;-0.99;89.22
76815;BME280;65768;49.906;19.384;2023-03-03T12:26:34;98631.31;;;-1.12;89.95
76815;BME280;65768;49.906;19.384;2023-03-03T12:29:24;98631.58;;;-1.11;90.16
76815;BME280;65768;49.906;19.384;2023-03-03T12:34:40;98632.13;;;-1.13;89.75
76815;BME280;65768;49.906;19.384;2023-03-03T12:48:19;98623.52;;;-1.24;90.39
76815;BME280;65768;49.906;19.384;2023-03-03T12:56:18;98618.77;;;-1.36;91.57
76815;BME280;65768;49.906;19.384;2023-03-03T12:59:03;98611.55;;;-1.36;91.92
76815;BME280;65768;49.906;19.384;2023-03-03T13:01:51;98607.55;;;-1.18;92.06
76815;BME280;65768;49.906;19.384;2023-03-03T13:04:39;98611.23;;;-1.17;91.94
76815;BME280;65768;49.906;19.384;2023-03-03T13:07:14;98610.05;;;-1.26;92.20
76815;BME280;65768;49.906;19.384;2023-03-03T13:15:22;98605.63;;;-1.29;93.19
76815;BME280;65768;49.906;19.384;2023-03-03T13:31:38;98600.09;;;-1.24;94.10
76815;BME280;65768;49.906;19.384;2023-03-03T13:34:14;98599.20;;;-1.28;93.94
76815;BME280;65768;49.906;19.384;2023-03-03T13:37:01;98593.13;;;-1.26;94.32
76815;BME280;65768;49.906;19.384;2023-03-03T13:39:33;98592.02;;;-1.17;94.11
76815;BME280;65768;49.906;19.384;2023-03-03T13:44:45;98593.98;;;-1.23;94.02
76815;BME280;65768;49.906;19.384;2023-03-03T13:50:40;98589.73;;;-1.26;94.65
76815;BME280;65768;49.906;19.384;2023-03-03T13:56:27;98583.34;;;-1.27;95.84
76815;BME280;65768;49.906;19.384;2023-03-03T14:01:49;98578.45;;;-1.29;95.71
76815;BME280;65768;49.906;19.384;2023-03-03T14:04:49;98579.64;;;-1.19;96.08
76815;BME280;65768;49.906;19.384;2023-03-03T14:07:26;98579.96;;;-1.20;96.01
76815;BME280;65768;49.906;19.384;2023-03-03T14:10:12;98584.16;;;-1.14;96.04
76815;BME280;65768;49.906;19.384;2023-03-03T14:13:10;98593.44;;;-1.17;95.41
76815;BME280;65768;49.906;19.384;2023-03-03T14:18:35;98599.23;;;-1.24;94.71
76815;BME280;65768;49.906;19.384;2023-03-03T14:21:13;98593.17;;;-1.38;94.72
76815;BME280;65768;49.906;19.384;2023-03-03T14:24:02;98592.41;;;-1.33;95.18
76815;BME280;65768;49.906;19.384;2023-03-03T14:26:55;98583.60;;;-1.28;95.13
76815;BME280;65768;49.906;19.384;2023-03-03T14:32:25;98581.30;;;-1.26;94.84
76815;BME280;65768;49.906;19.384;2023-03-03T14:34:58;98584.61;;;-1.22;95.31
76815;BME280;65768;49.906;19.384;2023-03-03T14:37:42;98585.87;;;-1.25;95.25
76815;BME280;65768;49.906;19.384;2023-03-03T14:40:15;98581.02;;;-1.22;95.25
76815;BME280;65768;49.906;19.384;2023-03-03T14:46:44;98580.31;;;-1.26;95.19
76815;BME280;65768;49.906;19.384;2023-03-03T14:49:37;98578.16;;;-1.24;95.59
76815;BME280;65768;49.906;19.384;2023-03-03T14:54:47;98586.52;;;-1.11;94.92
76815;BME280;65768;49.906;19.384;2023-03-03T14:57:19;98585.95;;;-1.16;93.62
76815;BME280;65768;49.906;19.384;2023-03-03T14:59:59;98581.59;;;-1.18;92.96
76815;BME280;65768;49.906;19.384;2023-03-03T15:05:24;98579.05;;;-1.07;92.94
76815;BME280;65768;49.906;19.384;2023-03-03T15:10:41;98579.33;;;-1.02;92.41
76815;BME280;65768;49.906;19.384;2023-03-03T15:15:59;98575.69;;;-1.03;91.71
76815;BME280;65768;49.906;19.384;2023-03-03T15:18:30;98576.41;;;-1.02;91.18
76815;BME280;65768;49.906;19.384;2023-03-03T15:21:14;98575.66;;;-1.03;91.07
76815;BME280;65768;49.906;19.384;2023-03-03T15:24:29;98576.49;;;-1.04;91.35
76815;BME280;65768;49.906;19.384;2023-03-03T15:26:58;98577.85;;;-1.08;91.62
76815;BME280;65768;49.906;19.384;2023-03-03T15:29:39;98581.08;;;-1.08;91.45
76815;BME280;65768;49.906;19.384;2023-03-03T15:32:28;98576.89;;;-1.06;91.37
76815;BME280;65768;49.906;19.384;2023-03-03T15:35:30;98579.47;;;-1.02;91.45
76815;BME280;65768;49.906;19.384;2023-03-03T15:44:04;98567.52;;;-1.05;90.37
76815;BME280;65768;49.906;19.384;2023-03-03T16:03:35;98562.89;;;-1.09;90.60
76815;BME280;65768;49.906;19.384;2023-03-03T16:18:18;98567.85;;;-1.12;89.96
76815;BME280;65768;49.906;19.384;2023-03-03T16:31:48;98577.08;;;-1.12;90.02
76815;BME280;65768;49.906;19.384;2023-03-03T16:34:46;98584.51;;;-1.11;89.94
76815;BME280;65768;49.906;19.384;2023-03-03T16:38:01;98587.52;;;-1.06;90.48
76815;BME280;65768;49.906;19.384;2023-03-03T16:40:57;98586.09;;;-1.07;90.48
76815;BME280;65768;49.906;19.384;2023-03-03T16:51:33;98604.57;;;-1.07;90.93
76815;BME280;65768;49.906;19.384;2023-03-03T16:54:15;98604.39;;;-1.07;90.93
76815;BME280;65768;49.906;19.384;2023-03-03T16:57:04;98603.62;;;-1.05;90.89
76815;BME280;65768;49.906;19.384;2023-03-03T16:59:46;98607.77;;;-1.01;90.54
76815;BME280;65768;49.906;19.384;2023-03-03T17:13:38;98613.48;;;-1.06;90.05
76815;BME280;65768;49.906;19.384;2023-03-03T17:19:12;98613.42;;;-1.04;89.83
76815;BME280;65768;49.906;19.384;2023-03-03T17:22:10;98606.45;;;-1.03;89.98
76815;BME280;65768;49.906;19.384;2023-03-03T17:33:16;98617.95;;;-1.12;88.87
76815;BME280;65768;49.906;19.384;2023-03-03T17:44:31;98600.95;;;-1.17;88.65
76815;BME280;65768;49.906;19.384;2023-03-03T17:47:14;98604.56;;;-1.23;88.30
76815;BME280;65768;49.906;19.384;2023-03-03T17:56:22;98616.42;;;-1.12;88.03
76815;BME280;65768;49.906;19.384;2023-03-03T18:10:12;98604.61;;;-1.12;88.00
76815;BME280;65768;49.906;19.384;2023-03-03T18:21:30;98611.80;;;-1.12;88.33
76815;BME280;65768;49.906;19.384;2023-03-03T18:24:25;98621.29;;;-1.14;88.44
76815;BME280;65768;49.906;19.384;2023-03-03T18:26:54;98619.35;;;-1.15;88.36